sensor_id;sensor_type;location;lat;lon;timestamp;pressure;altitude;pressure_sealevel;temperature;humidity
11329;BME280;5719;42.714;23.732;2023-01-31T00:01:04;93891.16;;;-0.07;95.83
11329;BME280;5719;42.714;23.732;2023-01-31T00:03:32;93898.56;;;-0.01;94.39
11329;BME280;5719;42.714;23.732;2023-01-31T00:06:08;93888.97;;;0.06;94.86
11329;BME280;5719;42.714;23.732;2023-01-31T00:08:35;93903.44;;;0.24;93.89
11329;BME280;5719;42.714;23.732;2023-01-31T00:11:04;93897.25;;;0.30;94.22
11329;BME280;5719;42.714;23.732;2023-01-31T00:13:31;93893.09;;;0.29;93.48
11329;BME280;5719;42.714;23.732;2023-01-31T00:15:58;93900.63;;;0.30;93.84
11329;BME280;5719;42.714;23.732;2023-01-31T00:18:25;93883.16;;;0.23;93.41
11329;BME280;5719;42.714;23.732;2023-01-31T00:20:52;93886.66;;;-0.20;95.88
11329;BME280;5719;42.714;23.732;2023-01-31T00:23:19;93880.50;;;-0.15;96.31
11329;BME280;5719;42.714;23.732;2023-01-31T00:25:46;93877.31;;;0.00;95.81
11329;BME280;5719;42.714;23.732;2023-01-31T00:28:14;93877.00;;;0.08;95.81
11329;BME280;5719;42.714;23.732;2023-01-31T00:30:41;93878.66;;;0.09;94.37
11329;BME280;5719;42.714;23.732;2023-01-31T00:33:08;93883.28;;;0.20;94.42
11329;BME280;5719;42.714;23.732;2023-01-31T00:35:37;93888.75;;;0.31;94.01
11329;BME280;5719;42.714;23.732;2023-01-31T00:38:05;93883.03;;;0.26;93.69
11329;BME280;5719;42.714;23.732;2023-01-31T00:40:31;93869.56;;;0.24;93.32
11329;BME280;5719;42.714;23.732;2023-01-31T00:42:58;93866.84;;;0.28;93.52
11329;BME280;5719;42.714;23.732;2023-01-31T00:45:27;93871.84;;;0.30;93.13
11329;BME280;5719;42.714;23.732;2023-01-31T00:47:53;93870.69;;;0.37;93.07
11329;BME280;5719;42.714;23.732;2023-01-31T00:50:20;93865.50;;;0.40;92.08
11329;BME280;5719;42.714;23.732;2023-01-31T00:52:47;93868.03;;;0.40;91.85
11329;BME280;5719;42.714;23.732;2023-01-31T00:55:14;93849.59;;;0.35;91.80
11329;BME280;5719;42.714;23.732;2023-01-31T00:57:41;93860.03;;;0.09;92.38
11329;BME280;5719;42.714;23.732;2023-01-31T01:00:10;93855.59;;;-0.27;94.53
11329;BME280;5719;42.714;23.732;2023-01-31T01:02:38;93856.88;;;-0.37;95.00
11329;BME280;5719;42.714;23.732;2023-01-31T01:05:06;93850.75;;;-0.75;97.30
11329;BME280;5719;42.714;23.732;2023-01-31T01:07:33;93859.78;;;-0.89;100.00
11329;BME280;5719;42.714;23.732;2023-01-31T01:10:00;93859.09;;;-0.94;100.00
11329;BME280;5719;42.714;23.732;2023-01-31T01:12:27;93864.22;;;-1.18;100.00
11329;BME280;5719;42.714;23.732;2023-01-31T01:14:54;93868.75;;;-1.26;100.00
11329;BME280;5719;42.714;23.732;2023-01-31T01:17:20;93866.25;;;-1.27;100.00
11329;BME280;5719;42.714;23.732;2023-01-31T01:19:49;93867.72;;;-1.20;100.00
11329;BME280;5719;42.714;23.732;2023-01-31T01:22:16;93870.84;;;-1.14;100.00
11329;BME280;5719;42.714;23.732;2023-01-31T01:24:43;93863.81;;;-1.29;100.00
11329;BME280;5719;42.714;23.732;2023-01-31T01:27:11;93878.66;;;-1.20;100.00
11329;BME280;5719;42.714;23.732;2023-01-31T01:29:38;93855.09;;;-1.22;100.00
11329;BME280;5719;42.714;23.732;2023-01-31T01:32:06;93857.97;;;-1.09;100.00
11329;BME280;5719;42.714;23.732;2023-01-31T01:34:34;93858.47;;;-1.00;100.00
11329;BME280;5719;42.714;23.732;2023-01-31T01:37:03;93849.38;;;-1.05;100.00
11329;BME280;5719;42.714;23.732;2023-01-31T01:39:36;93857.56;;;-1.20;100.00
11329;BME280;5719;42.714;23.732;2023-01-31T01:42:03;93856.63;;;-1.18;100.00
11329;BME280;5719;42.714;23.732;2023-01-31T01:44:49;93853.38;;;-1.21;100.00
11329;BME280;5719;42.714;23.732;2023-01-31T01:47:22;93849.13;;;-1.21;100.00
11329;BME280;5719;42.714;23.732;2023-01-31T01:49:55;93856.56;;;-1.16;100.00
11329;BME280;5719;42.714;23.732;2023-01-31T01:52:25;93857.31;;;-1.36;100.00
11329;BME280;5719;42.714;23.732;2023-01-31T01:54:57;93845.56;;;-1.62;100.00
11329;BME280;5719;42.714;23.732;2023-01-31T01:57:30;93839.56;;;-1.82;100.00
11329;BME280;5719;42.714;23.732;2023-01-31T02:00:04;93848.25;;;-1.66;100.00
11329;BME280;5719;42.714;23.732;2023-01-31T02:02:34;93847.53;;;-1.70;100.00
11329;BME280;5719;42.714;23.732;2023-01-31T02:05:01;93852.03;;;-1.78;100.00
11329;BME280;5719;42.714;23.732;2023-01-31T02:07:30;93863.22;;;-1.83;100.00
11329;BME280;5719;42.714;23.732;2023-01-31T02:10:01;93850.59;;;-1.85;100.00
11329;BME280;5719;42.714;23.732;2023-01-31T02:12:31;93856.47;;;-1.83;100.00
11329;BME280;5719;42.714;23.732;2023-01-31T02:14:58;93854.94;;;-1.88;100.00
11329;BME280;5719;42.714;23.732;2023-01-31T02:17:25;93861.44;;;-1.81;100.00
11329;BME280;5719;42.714;23.732;2023-01-31T02:20:03;93858.78;;;-1.77;100.00
11329;BME280;5719;42.714;23.732;2023-01-31T02:22:38;93843.19;;;-1.89;100.00
11329;BME280;5719;42.714;23.732;2023-01-31T02:28:36;93854.53;;;-1.76;100.00
11329;BME280;5719;42.714;23.732;2023-01-31T02:31:30;93854.19;;;-1.67;100.00
11329;BME280;5719;42.714;23.732;2023-01-31T02:34:07;93853.75;;;-1.78;100.00
11329;BME280;5719;42.714;23.732;2023-01-31T02:36:45;93854.91;;;-1.87;100.00
11329;BME280;5719;42.714;23.732;2023-01-31T02:39:23;93861.81;;;-1.92;100.00
11329;BME280;5719;42.714;23.732;2023-01-31T02:41:56;93864.16;;;-1.86;100.00
11329;BME280;5719;42.714;23.732;2023-01-31T02:44:31;93864.56;;;-1.73;100.00
11329;BME280;5719;42.714;23.732;2023-01-31T02:47:26;93856.81;;;-1.69;100.00
11329;BME280;5719;42.714;23.732;2023-01-31T02:49:59;93868.22;;;-1.57;100.00
11329;BME280;5719;42.714;23.732;2023-01-31T02:52:34;93864.78;;;-1.56;100.00
11329;BME280;5719;42.714;23.732;2023-01-31T02:55:10;93864.50;;;-1.49;100.00
11329;BME280;5719;42.714;23.732;2023-01-31T02:57:57;93860.38;;;-1.51;100.00
11329;BME280;5719;42.714;23.732;2023-01-31T03:00:25;93875.59;;;-1.51;100.00
11329;BME280;5719;42.714;23.732;2023-01-31T03:02:52;93868.47;;;-1.65;100.00
11329;BME280;5719;42.714;23.732;2023-01-31T03:05:22;93871.22;;;-1.71;100.00
11329;BME280;5719;42.714;23.732;2023-01-31T03:07:52;93895.09;;;-1.53;100.00
11329;BME280;5719;42.714;23.732;2023-01-31T03:10:32;93890.38;;;-1.39;100.00
11329;BME280;5719;42.714;23.732;2023-01-31T03:13:17;93900.88;;;-1.26;100.00
11329;BME280;5719;42.714;23.732;2023-01-31T03:15:57;93897.84;;;-1.13;99.15
11329;BME280;5719;42.714;23.732;2023-01-31T03:18:49;93908.69;;;-1.09;98.09
11329;BME280;5719;42.714;23.732;2023-01-31T03:21:24;93917.53;;;-0.96;96.55
11329;BME280;5719;42.714;23.732;2023-01-31T03:23:54;93855.91;;;-1.44;95.84
11329;BME280;5719;42.714;23.732;2023-01-31T03:26:24;93908.66;;;-1.08;95.90
11329;BME280;5719;42.714;23.732;2023-01-31T03:28:52;93895.84;;;-1.05;95.36
11329;BME280;5719;42.714;23.732;2023-01-31T03:31:25;93909.84;;;-0.94;95.51
11329;BME280;5719;42.714;23.732;2023-01-31T03:33:54;93909.31;;;-1.03;94.35
11329;BME280;5719;42.714;23.732;2023-01-31T03:36:29;93924.97;;;-0.91;93.76
11329;BME280;5719;42.714;23.732;2023-01-31T03:39:08;93935.31;;;-0.98;93.43
11329;BME280;5719;42.714;23.732;2023-01-31T03:41:44;93938.09;;;-1.04;93.61
11329;BME280;5719;42.714;23.732;2023-01-31T03:44:19;93939.69;;;-1.01;93.54
11329;BME280;5719;42.714;23.732;2023-01-31T03:46:55;93929.69;;;-1.06;92.81
11329;BME280;5719;42.714;23.732;2023-01-31T03:49:26;93922.75;;;-1.01;92.24
11329;BME280;5719;42.714;23.732;2023-01-31T03:52:00;93921.88;;;-1.00;92.05
11329;BME280;5719;42.714;23.732;2023-01-31T03:54:35;93929.25;;;-0.93;91.59
11329;BME280;5719;42.714;23.732;2023-01-31T03:57:07;93932.34;;;-1.09;94.21
11329;BME280;5719;42.714;23.732;2023-01-31T03:59:38;93915.78;;;-1.17;94.68
11329;BME280;5719;42.714;23.732;2023-01-31T04:02:09;93924.03;;;-1.12;94.02
11329;BME280;5719;42.714;23.732;2023-01-31T04:04:39;93922.75;;;-1.24;94.68
11329;BME280;5719;42.714;23.732;2023-01-31T04:07:10;93925.41;;;-1.27;94.80
11329;BME280;5719;42.714;23.732;2023-01-31T04:09:38;93932.47;;;-1.35;96.41
11329;BME280;5719;42.714;23.732;2023-01-31T04:12:05;93943.34;;;-1.31;97.08
11329;BME280;5719;42.714;23.732;2023-01-31T04:14:32;93957.59;;;-1.29;96.92
11329;BME280;5719;42.714;23.732;2023-01-31T04:16:59;93946.84;;;-1.35;97.14
11329;BME280;5719;42.714;23.732;2023-01-31T04:19:25;93946.03;;;-1.36;97.94
11329;BME280;5719;42.714;23.732;2023-01-31T04:21:52;93942.63;;;-1.35;98.75
11329;BME280;5719;42.714;23.732;2023-01-31T04:24:21;93963.41;;;-1.50;100.00
11329;BME280;5719;42.714;23.732;2023-01-31T04:26:48;93967.44;;;-1.44;100.00
11329;BME280;5719;42.714;23.732;2023-01-31T04:29:15;93969.00;;;-1.40;100.00
11329;BME280;5719;42.714;23.732;2023-01-31T04:31:42;93971.16;;;-1.30;100.00
11329;BME280;5719;42.714;23.732;2023-01-31T04:34:08;93966.31;;;-1.36;100.00
11329;BME280;5719;42.714;23.732;2023-01-31T04:36:35;93984.09;;;-1.37;100.00
11329;BME280;5719;42.714;23.732;2023-01-31T04:39:02;93977.88;;;-1.29;100.00
11329;BME280;5719;42.714;23.732;2023-01-31T04:41:30;93981.56;;;-1.37;100.00
11329;BME280;5719;42.714;23.732;2023-01-31T04:43:57;93980.06;;;-1.43;100.00
11329;BME280;5719;42.714;23.732;2023-01-31T04:46:24;93988.97;;;-1.31;100.00
11329;BME280;5719;42.714;23.732;2023-01-31T04:48:51;94000.44;;;-1.21;100.00
11329;BME280;5719;42.714;23.732;2023-01-31T04:51:18;93991.97;;;-1.20;100.00
11329;BME280;5719;42.714;23.732;2023-01-31T04:53:45;93998.72;;;-1.45;100.00
11329;BME280;5719;42.714;23.732;2023-01-31T04:56:11;93986.34;;;-1.53;100.00
11329;BME280;5719;42.714;23.732;2023-01-31T04:58:40;94006.25;;;-1.42;100.00
11329;BME280;5719;42.714;23.732;2023-01-31T05:01:07;93946.13;;;-1.88;100.00
11329;BME280;5719;42.714;23.732;2023-01-31T05:03:34;93998.47;;;-1.63;100.00
11329;BME280;5719;42.714;23.732;2023-01-31T05:06:01;93994.50;;;-1.70;100.00
11329;BME280;5719;42.714;23.732;2023-01-31T05:08:28;94003.28;;;-1.55;100.00
11329;BME280;5719;42.714;23.732;2023-01-31T05:10:58;94006.69;;;-1.56;100.00
11329;BME280;5719;42.714;23.732;2023-01-31T05:13:25;94002.44;;;-1.56;100.00
11329;BME280;5719;42.714;23.732;2023-01-31T05:15:53;94011.72;;;-1.55;100.00
11329;BME280;5719;42.714;23.732;2023-01-31T05:18:22;94006.19;;;-1.66;100.00
11329;BME280;5719;42.714;23.732;2023-01-31T05:20:49;93999.56;;;-1.70;100.00
11329;BME280;5719;42.714;23.732;2023-01-31T05:23:16;93992.78;;;-1.69;100.00
11329;BME280;5719;42.714;23.732;2023-01-31T05:25:44;93996.91;;;-1.67;100.00
11329;BME280;5719;42.714;23.732;2023-01-31T05:28:11;94003.69;;;-1.67;100.00
11329;BME280;5719;42.714;23.732;2023-01-31T05:30:38;93986.06;;;-1.45;100.00
11329;BME280;5719;42.714;23.732;2023-01-31T05:33:06;93993.50;;;-1.41;100.00
11329;BME280;5719;42.714;23.732;2023-01-31T05:35:33;94014.13;;;-1.27;100.00
11329;BME280;5719;42.714;23.732;2023-01-31T05:38:00;94006.00;;;-1.35;100.00
11329;BME280;5719;42.714;23.732;2023-01-31T05:40:27;94006.28;;;-1.44;100.00
11329;BME280;5719;42.714;23.732;2023-01-31T05:42:54;94016.22;;;-1.38;100.00
11329;BME280;5719;42.714;23.732;2023-01-31T05:45:22;94022.19;;;-1.39;100.00
11329;BME280;5719;42.714;23.732;2023-01-31T05:47:49;94018.50;;;-1.30;100.00
11329;BME280;5719;42.714;23.732;2023-01-31T05:50:18;94026.81;;;-1.27;100.00
11329;BME280;5719;42.714;23.732;2023-01-31T05:52:49;94012.03;;;-1.39;100.00
11329;BME280;5719;42.714;23.732;2023-01-31T05:55:16;94014.63;;;-1.40;100.00
11329;BME280;5719;42.714;23.732;2023-01-31T05:57:43;94027.72;;;-1.28;100.00
11329;BME280;5719;42.714;23.732;2023-01-31T06:00:11;94016.94;;;-1.34;100.00
11329;BME280;5719;42.714;23.732;2023-01-31T06:02:38;94031.78;;;-1.24;100.00
11329;BME280;5719;42.714;23.732;2023-01-31T06:05:07;94020.00;;;-1.25;100.00
11329;BME280;5719;42.714;23.732;2023-01-31T06:07:35;94018.56;;;-1.32;100.00
11329;BME280;5719;42.714;23.732;2023-01-31T06:10:03;94000.38;;;-1.44;100.00
11329;BME280;5719;42.714;23.732;2023-01-31T06:12:29;94028.53;;;-1.27;100.00
11329;BME280;5719;42.714;23.732;2023-01-31T06:14:56;94031.06;;;-1.03;100.00
11329;BME280;5719;42.714;23.732;2023-01-31T06:17:23;94031.06;;;-0.56;100.00
11329;BME280;5719;42.714;23.732;2023-01-31T06:19:50;94020.38;;;-0.64;100.00
11329;BME280;5719;42.714;23.732;2023-01-31T06:22:18;94028.75;;;-0.17;100.00
11329;BME280;5719;42.714;23.732;2023-01-31T06:24:46;94029.47;;;-0.14;100.00
11329;BME280;5719;42.714;23.732;2023-01-31T06:27:13;94038.56;;;-0.30;100.00
11329;BME280;5719;42.714;23.732;2023-01-31T06:29:40;94044.63;;;-0.57;100.00
11329;BME280;5719;42.714;23.732;2023-01-31T06:32:07;94039.34;;;-0.74;100.00
11329;BME280;5719;42.714;23.732;2023-01-31T06:34:34;94039.09;;;-0.67;100.00
11329;BME280;5719;42.714;23.732;2023-01-31T06:37:00;94043.81;;;-0.58;100.00
11329;BME280;5719;42.714;23.732;2023-01-31T06:39:27;94031.47;;;-0.67;100.00
11329;BME280;5719;42.714;23.732;2023-01-31T06:41:56;94030.38;;;-0.60;100.00
11329;BME280;5719;42.714;23.732;2023-01-31T06:44:22;94039.44;;;-0.54;100.00
11329;BME280;5719;42.714;23.732;2023-01-31T06:46:49;94026.84;;;-0.56;100.00
11329;BME280;5719;42.714;23.732;2023-01-31T06:49:16;94018.56;;;-0.39;100.00
11329;BME280;5719;42.714;23.732;2023-01-31T06:51:43;94033.94;;;-0.20;100.00
11329;BME280;5719;42.714;23.732;2023-01-31T06:54:10;94018.16;;;-0.28;100.00
11329;BME280;5719;42.714;23.732;2023-01-31T06:56:37;94025.38;;;-0.18;100.00
11329;BME280;5719;42.714;23.732;2023-01-31T06:59:05;94031.78;;;-0.08;100.00
11329;BME280;5719;42.714;23.732;2023-01-31T07:01:32;94034.63;;;0.07;100.00
11329;BME280;5719;42.714;23.732;2023-01-31T07:03:59;94033.72;;;0.08;100.00
11329;BME280;5719;42.714;23.732;2023-01-31T07:06:26;93970.50;;;-0.22;100.00
11329;BME280;5719;42.714;23.732;2023-01-31T07:08:52;94007.78;;;-0.01;100.00
11329;BME280;5719;42.714;23.732;2023-01-31T07:11:19;94012.16;;;-0.04;100.00
11329;BME280;5719;42.714;23.732;2023-01-31T07:13:46;94029.84;;;-0.01;100.00
11329;BME280;5719;42.714;23.732;2023-01-31T07:16:16;94025.66;;;-0.04;100.00
11329;BME280;5719;42.714;23.732;2023-01-31T07:18:44;94025.47;;;0.03;100.00
11329;BME280;5719;42.714;23.732;2023-01-31T07:21:11;94035.19;;;0.13;100.00
11329;BME280;5719;42.714;23.732;2023-01-31T07:23:38;94036.06;;;0.12;100.00
11329;BME280;5719;42.714;23.732;2023-01-31T07:26:05;94026.41;;;0.22;100.00
11329;BME280;5719;42.714;23.732;2023-01-31T07:28:32;94038.03;;;0.27;100.00
11329;BME280;5719;42.714;23.732;2023-01-31T07:31:05;93972.41;;;-0.05;100.00
11329;BME280;5719;42.714;23.732;2023-01-31T07:33:33;94040.69;;;0.24;100.00
11329;BME280;5719;42.714;23.732;2023-01-31T07:36:01;94048.25;;;0.26;100.00
11329;BME280;5719;42.714;23.732;2023-01-31T07:38:29;94048.06;;;0.30;100.00
11329;BME280;5719;42.714;23.732;2023-01-31T07:40:58;94050.44;;;0.35;100.00
11329;BME280;5719;42.714;23.732;2023-01-31T07:43:26;94049.16;;;0.45;100.00
11329;BME280;5719;42.714;23.732;2023-01-31T07:45:53;94051.31;;;0.34;100.00
11329;BME280;5719;42.714;23.732;2023-01-31T07:48:20;94044.13;;;0.23;100.00
11329;BME280;5719;42.714;23.732;2023-01-31T07:50:50;94054.09;;;0.28;100.00
11329;BME280;5719;42.714;23.732;2023-01-31T07:53:18;94045.34;;;0.35;100.00
11329;BME280;5719;42.714;23.732;2023-01-31T07:55:45;94051.97;;;0.59;100.00
11329;BME280;5719;42.714;23.732;2023-01-31T07:58:12;94041.03;;;1.18;100.00
11329;BME280;5719;42.714;23.732;2023-01-31T08:00:40;94038.19;;;1.44;99.01
11329;BME280;5719;42.714;23.732;2023-01-31T08:03:26;94043.78;;;1.52;99.31
11329;BME280;5719;42.714;23.732;2023-01-31T08:06:05;94057.06;;;1.77;97.99
11329;BME280;5719;42.714;23.732;2023-01-31T08:08:32;94040.66;;;1.64;96.80
11329;BME280;5719;42.714;23.732;2023-01-31T08:11:00;94046.69;;;1.63;97.50
11329;BME280;5719;42.714;23.732;2023-01-31T08:13:29;94059.06;;;1.52;97.30
11329;BME280;5719;42.714;23.732;2023-01-31T08:15:56;94063.59;;;1.64;98.38
11329;BME280;5719;42.714;23.732;2023-01-31T08:18:23;94064.72;;;1.77;96.47
11329;BME280;5719;42.714;23.732;2023-01-31T08:20:50;94053.31;;;1.47;98.25
11329;BME280;5719;42.714;23.732;2023-01-31T08:23:19;94055.81;;;1.86;97.67
11329;BME280;5719;42.714;23.732;2023-01-31T08:25:46;94053.16;;;1.89;95.67
11329;BME280;5719;42.714;23.732;2023-01-31T08:28:13;94058.69;;;2.16;93.39
11329;BME280;5719;42.714;23.732;2023-01-31T08:30:40;94059.28;;;1.85;94.85
11329;BME280;5719;42.714;23.732;2023-01-31T08:33:08;94068.56;;;1.86;95.68
11329;BME280;5719;42.714;23.732;2023-01-31T08:35:35;94060.00;;;2.06;96.25
11329;BME280;5719;42.714;23.732;2023-01-31T08:38:03;94058.63;;;2.17;92.94
11329;BME280;5719;42.714;23.732;2023-01-31T08:40:31;94059.97;;;1.88;95.37
11329;BME280;5719;42.714;23.732;2023-01-31T08:42:59;94058.34;;;2.40;95.60
11329;BME280;5719;42.714;23.732;2023-01-31T08:45:27;94053.22;;;2.93;92.46
11329;BME280;5719;42.714;23.732;2023-01-31T08:47:55;94063.34;;;3.62;89.03
11329;BME280;5719;42.714;23.732;2023-01-31T08:50:23;94045.88;;;4.02;84.35
11329;BME280;5719;42.714;23.732;2023-01-31T08:52:53;94047.19;;;4.85;81.13
11329;BME280;5719;42.714;23.732;2023-01-31T08:55:23;94046.97;;;4.74;78.77
11329;BME280;5719;42.714;23.732;2023-01-31T08:57:52;94028.88;;;5.21;77.48
11329;BME280;5719;42.714;23.732;2023-01-31T09:00:20;94040.44;;;5.42;74.22
11329;BME280;5719;42.714;23.732;2023-01-31T09:02:50;94050.63;;;5.14;77.99
11329;BME280;5719;42.714;23.732;2023-01-31T09:05:17;94049.13;;;5.68;74.66
11329;BME280;5719;42.714;23.732;2023-01-31T09:07:44;94042.47;;;5.94;73.21
11329;BME280;5719;42.714;23.732;2023-01-31T09:10:11;94054.38;;;5.67;76.34
11329;BME280;5719;42.714;23.732;2023-01-31T09:12:39;94047.94;;;5.31;75.40
11329;BME280;5719;42.714;23.732;2023-01-31T09:15:08;94051.50;;;5.43;75.68
11329;BME280;5719;42.714;23.732;2023-01-31T09:17:35;94058.06;;;5.19;78.76
11329;BME280;5719;42.714;23.732;2023-01-31T09:20:02;94054.91;;;5.00;79.70
11329;BME280;5719;42.714;23.732;2023-01-31T09:22:31;94053.41;;;6.24;75.90
11329;BME280;5719;42.714;23.732;2023-01-31T09:24:59;94037.78;;;6.68;70.70
11329;BME280;5719;42.714;23.732;2023-01-31T09:27:26;94039.16;;;5.64;75.35
11329;BME280;5719;42.714;23.732;2023-01-31T09:29:53;94031.22;;;6.23;74.70
11329;BME280;5719;42.714;23.732;2023-01-31T09:32:21;94042.13;;;6.41;72.27
11329;BME280;5719;42.714;23.732;2023-01-31T09:34:48;94042.75;;;7.36;69.65
11329;BME280;5719;42.714;23.732;2023-01-31T09:37:15;94036.44;;;7.02;70.12
11329;BME280;5719;42.714;23.732;2023-01-31T09:39:42;94023.81;;;7.62;67.90
11329;BME280;5719;42.714;23.732;2023-01-31T09:42:17;94031.38;;;6.88;68.58
11329;BME280;5719;42.714;23.732;2023-01-31T09:44:55;94017.88;;;6.45;72.94
11329;BME280;5719;42.714;23.732;2023-01-31T09:47:25;94020.72;;;7.19;69.33
11329;BME280;5719;42.714;23.732;2023-01-31T09:49:58;94030.44;;;6.09;70.14
11329;BME280;5719;42.714;23.732;2023-01-31T09:52:26;94025.72;;;5.46;75.37
11329;BME280;5719;42.714;23.732;2023-01-31T09:54:55;94026.31;;;6.06;72.45
11329;BME280;5719;42.714;23.732;2023-01-31T09:57:33;94033.75;;;5.54;74.53
11329;BME280;5719;42.714;23.732;2023-01-31T10:00:16;94026.81;;;5.28;76.75
11329;BME280;5719;42.714;23.732;2023-01-31T10:02:55;94024.47;;;4.65;79.24
11329;BME280;5719;42.714;23.732;2023-01-31T10:05:30;94028.09;;;4.00;85.90
11329;BME280;5719;42.714;23.732;2023-01-31T10:08:11;94014.56;;;5.03;80.91
11329;BME280;5719;42.714;23.732;2023-01-31T10:10:45;94025.09;;;4.99;80.09
11329;BME280;5719;42.714;23.732;2023-01-31T10:13:17;94011.97;;;4.89;79.22
11329;BME280;5719;42.714;23.732;2023-01-31T10:15:48;94009.56;;;4.42;81.77
11329;BME280;5719;42.714;23.732;2023-01-31T10:18:22;94020.31;;;4.17;85.05
11329;BME280;5719;42.714;23.732;2023-01-31T10:20:55;94010.34;;;3.33;87.02
11329;BME280;5719;42.714;23.732;2023-01-31T10:23:27;94015.06;;;3.08;89.62
11329;BME280;5719;42.714;23.732;2023-01-31T10:25:58;94022.81;;;3.39;88.70
11329;BME280;5719;42.714;23.732;2023-01-31T10:28:30;94019.28;;;3.57;87.60
11329;BME280;5719;42.714;23.732;2023-01-31T10:31:05;94012.69;;;3.37;88.56
11329;BME280;5719;42.714;23.732;2023-01-31T10:33:40;94015.84;;;4.21;90.46
11329;BME280;5719;42.714;23.732;2023-01-31T10:36:13;93984.63;;;4.30;82.45
11329;BME280;5719;42.714;23.732;2023-01-31T10:38:54;94005.81;;;4.18;82.15
11329;BME280;5719;42.714;23.732;2023-01-31T10:41:33;93987.81;;;3.57;84.94
11329;BME280;5719;42.714;23.732;2023-01-31T10:44:07;93966.06;;;3.50;83.70
11329;BME280;5719;42.714;23.732;2023-01-31T10:46:39;94002.16;;;3.59;85.39
11329;BME280;5719;42.714;23.732;2023-01-31T10:49:09;94009.34;;;3.20;87.49
11329;BME280;5719;42.714;23.732;2023-01-31T10:51:59;94009.53;;;3.32;89.02
11329;BME280;5719;42.714;23.732;2023-01-31T10:54:40;94002.03;;;3.29;88.25
11329;BME280;5719;42.714;23.732;2023-01-31T10:57:12;93987.41;;;3.16;89.33
11329;BME280;5719;42.714;23.732;2023-01-31T10:59:41;93995.81;;;3.18;90.11
11329;BME280;5719;42.714;23.732;2023-01-31T11:02:18;93995.56;;;2.89;91.23
11329;BME280;5719;42.714;23.732;2023-01-31T11:04:48;94000.38;;;2.78;92.07
11329;BME280;5719;42.714;23.732;2023-01-31T11:07:15;94001.09;;;3.15;91.08
11329;BME280;5719;42.714;23.732;2023-01-31T11:09:46;93993.69;;;2.93;91.44
11329;BME280;5719;42.714;23.732;2023-01-31T11:12:14;93993.63;;;2.77;94.81
11329;BME280;5719;42.714;23.732;2023-01-31T11:14:41;93992.78;;;2.94;94.13
11329;BME280;5719;42.714;23.732;2023-01-31T11:17:14;93971.56;;;2.76;93.00
11329;BME280;5719;42.714;23.732;2023-01-31T11:19:44;93994.06;;;2.85;90.27
11329;BME280;5719;42.714;23.732;2023-01-31T11:22:21;93990.47;;;2.89;91.33
11329;BME280;5719;42.714;23.732;2023-01-31T11:24:49;93975.75;;;2.77;90.86
11329;BME280;5719;42.714;23.732;2023-01-31T11:27:25;93982.44;;;2.45;91.10
11329;BME280;5719;42.714;23.732;2023-01-31T11:29:54;93989.06;;;2.50;90.63
11329;BME280;5719;42.714;23.732;2023-01-31T11:32:25;93991.16;;;2.76;89.67
11329;BME280;5719;42.714;23.732;2023-01-31T11:34:57;93992.75;;;2.44;91.84
11329;BME280;5719;42.714;23.732;2023-01-31T11:37:27;93993.91;;;2.37;93.88
11329;BME280;5719;42.714;23.732;2023-01-31T11:39:56;94002.94;;;2.44;94.73
11329;BME280;5719;42.714;23.732;2023-01-31T11:42:23;93993.19;;;2.35;95.72
11329;BME280;5719;42.714;23.732;2023-01-31T11:44:55;93992.97;;;2.39;96.74
11329;BME280;5719;42.714;23.732;2023-01-31T11:47:37;93989.94;;;2.48;97.79
11329;BME280;5719;42.714;23.732;2023-01-31T11:50:07;93978.78;;;2.51;96.80
11329;BME280;5719;42.714;23.732;2023-01-31T11:52:45;93992.50;;;2.31;96.65
11329;BME280;5719;42.714;23.732;2023-01-31T11:55:16;93995.41;;;2.41;97.34
11329;BME280;5719;42.714;23.732;2023-01-31T11:57:44;93987.84;;;2.57;95.60
11329;BME280;5719;42.714;23.732;2023-01-31T12:00:20;93982.28;;;2.31;96.19
11329;BME280;5719;42.714;23.732;2023-01-31T12:02:52;93989.28;;;2.45;95.92
11329;BME280;5719;42.714;23.732;2023-01-31T12:05:33;93992.75;;;2.44;96.98
11329;BME280;5719;42.714;23.732;2023-01-31T12:08:02;93987.84;;;2.74;95.63
11329;BME280;5719;42.714;23.732;2023-01-31T12:10:32;93985.69;;;2.49;96.93
11329;BME280;5719;42.714;23.732;2023-01-31T12:13:01;93995.97;;;2.65;100.00
11329;BME280;5719;42.714;23.732;2023-01-31T12:15:30;94007.13;;;2.28;100.00
11329;BME280;5719;42.714;23.732;2023-01-31T12:17:59;94007.47;;;2.03;100.00
11329;BME280;5719;42.714;23.732;2023-01-31T12:20:37;93984.06;;;1.76;100.00
11329;BME280;5719;42.714;23.732;2023-01-31T12:23:20;94011.44;;;2.09;100.00
11329;BME280;5719;42.714;23.732;2023-01-31T12:25:59;93999.97;;;2.17;100.00
11329;BME280;5719;42.714;23.732;2023-01-31T12:28:42;94004.13;;;2.37;100.00
11329;BME280;5719;42.714;23.732;2023-01-31T12:31:27;94000.88;;;2.33;100.00
11329;BME280;5719;42.714;23.732;2023-01-31T12:34:13;93996.47;;;2.37;100.00
11329;BME280;5719;42.714;23.732;2023-01-31T12:36:53;93995.47;;;1.86;100.00
11329;BME280;5719;42.714;23.732;2023-01-31T12:39:36;94007.97;;;1.74;100.00
11329;BME280;5719;42.714;23.732;2023-01-31T12:42:19;94004.44;;;1.76;100.00
11329;BME280;5719;42.714;23.732;2023-01-31T12:44:50;94003.13;;;1.68;100.00
11329;BME280;5719;42.714;23.732;2023-01-31T12:47:41;94009.88;;;1.69;100.00
11329;BME280;5719;42.714;23.732;2023-01-31T12:50:22;94008.22;;;1.68;100.00
11329;BME280;5719;42.714;23.732;2023-01-31T12:53:13;94011.75;;;1.84;100.00
11329;BME280;5719;42.714;23.732;2023-01-31T12:55:51;94008.41;;;2.01;100.00
11329;BME280;5719;42.714;23.732;2023-01-31T12:58:34;93998.66;;;1.91;100.00
11329;BME280;5719;42.714;23.732;2023-01-31T13:01:09;94018.00;;;1.95;100.00
11329;BME280;5719;42.714;23.732;2023-01-31T13:03:48;94009.81;;;2.08;100.00
11329;BME280;5719;42.714;23.732;2023-01-31T13:06:23;93988.50;;;1.90;100.00
11329;BME280;5719;42.714;23.732;2023-01-31T13:08:53;94006.72;;;1.82;100.00
11329;BME280;5719;42.714;23.732;2023-01-31T13:11:27;94013.25;;;2.07;100.00
11329;BME280;5719;42.714;23.732;2023-01-31T13:14:00;94023.09;;;2.14;100.00
11329;BME280;5719;42.714;23.732;2023-01-31T13:16:29;94014.97;;;1.87;100.00
11329;BME280;5719;42.714;23.732;2023-01-31T13:19:01;94021.25;;;1.99;100.00
11329;BME280;5719;42.714;23.732;2023-01-31T13:21:32;94025.09;;;2.08;100.00